sensor_id;sensor_type;location;lat;lon;timestamp;temperature;humidity
19242;DHT22;9755;47.790;9.620;2022-07-06T00:00:52;15.40;99.90
19242;DHT22;9755;47.790;9.620;2022-07-06T00:03:19;15.30;1.00
19242;DHT22;9755;47.790;9.620;2022-07-06T00:05:47;15.00;99.90
19242;DHT22;9755;47.790;9.620;2022-07-06T00:08:14;15.00;99.90
19242;DHT22;9755;47.790;9.620;2022-07-06T00:10:41;14.90;99.90
19242;DHT22;9755;47.790;9.620;2022-07-06T00:13:09;14.90;1.00
19242;DHT22;9755;47.790;9.620;2022-07-06T00:15:36;14.90;1.00
19242;DHT22;9755;47.790;9.620;2022-07-06T00:18:03;15.10;1.00
19242;DHT22;9755;47.790;9.620;2022-07-06T00:20:30;15.00;1.00
19242;DHT22;9755;47.790;9.620;2022-07-06T00:22:58;14.90;1.00
19242;DHT22;9755;47.790;9.620;2022-07-06T00:25:25;15.00;99.90
19242;DHT22;9755;47.790;9.620;2022-07-06T00:27:52;15.00;1.00
19242;DHT22;9755;47.790;9.620;2022-07-06T00:30:19;14.70;99.90
19242;DHT22;9755;47.790;9.620;2022-07-06T00:32:47;14.60;1.00
19242;DHT22;9755;47.790;9.620;2022-07-06T00:35:14;14.70;99.90
19242;DHT22;9755;47.790;9.620;2022-07-06T00:37:41;14.70;99.90
19242;DHT22;9755;47.790;9.620;2022-07-06T00:40:10;14.50;86.30
19242;DHT22;9755;47.790;9.620;2022-07-06T00:42:41;14.40;99.90
19242;DHT22;9755;47.790;9.620;2022-07-06T00:45:09;14.50;1.00
19242;DHT22;9755;47.790;9.620;2022-07-06T00:47:36;14.60;1.00
19242;DHT22;9755;47.790;9.620;2022-07-06T00:50:04;14.60;1.00
19242;DHT22;9755;47.790;9.620;2022-07-06T00:52:44;14.60;99.90
19242;DHT22;9755;47.790;9.620;2022-07-06T00:55:14;14.40;99.90
19242;DHT22;9755;47.790;9.620;2022-07-06T00:57:41;14.30;1.00
19242;DHT22;9755;47.790;9.620;2022-07-06T01:00:11;14.30;1.00
19242;DHT22;9755;47.790;9.620;2022-07-06T01:02:38;14.30;1.00
19242;DHT22;9755;47.790;9.620;2022-07-06T01:05:06;14.00;1.00
19242;DHT22;9755;47.790;9.620;2022-07-06T01:07:35;13.90;1.00
19242;DHT22;9755;47.790;9.620;2022-07-06T01:10:02;13.90;1.00
19242;DHT22;9755;47.790;9.620;2022-07-06T01:12:31;13.80;1.00
19242;DHT22;9755;47.790;9.620;2022-07-06T01:14:58;13.60;1.00
19242;DHT22;9755;47.790;9.620;2022-07-06T01:17:26;13.50;4.20
19242;DHT22;9755;47.790;9.620;2022-07-06T01:19:53;13.60;99.90
19242;DHT22;9755;47.790;9.620;2022-07-06T01:22:21;13.50;99.90
19242;DHT22;9755;47.790;9.620;2022-07-06T01:24:48;13.40;99.90
19242;DHT22;9755;47.790;9.620;2022-07-06T01:27:15;13.20;99.90
19242;DHT22;9755;47.790;9.620;2022-07-06T01:29:42;13.20;99.90
19242;DHT22;9755;47.790;9.620;2022-07-06T01:32:10;13.10;99.90
19242;DHT22;9755;47.790;9.620;2022-07-06T01:34:37;13.20;99.90
19242;DHT22;9755;47.790;9.620;2022-07-06T01:37:04;13.30;99.90
19242;DHT22;9755;47.790;9.620;2022-07-06T01:39:32;13.20;99.90
19242;DHT22;9755;47.790;9.620;2022-07-06T01:41:59;13.30;99.90
19242;DHT22;9755;47.790;9.620;2022-07-06T01:44:26;13.20;99.90
19242;DHT22;9755;47.790;9.620;2022-07-06T01:46:54;13.00;99.90
19242;DHT22;9755;47.790;9.620;2022-07-06T01:49:21;12.90;99.90
19242;DHT22;9755;47.790;9.620;2022-07-06T01:51:48;13.00;99.90
19242;DHT22;9755;47.790;9.620;2022-07-06T01:54:15;13.10;99.90
19242;DHT22;9755;47.790;9.620;2022-07-06T01:56:43;13.30;99.90
19242;DHT22;9755;47.790;9.620;2022-07-06T01:59:10;13.50;99.90
19242;DHT22;9755;47.790;9.620;2022-07-06T02:01:37;13.60;99.90
19242;DHT22;9755;47.790;9.620;2022-07-06T02:04:04;13.60;99.90
19242;DHT22;9755;47.790;9.620;2022-07-06T02:06:31;13.60;99.90
19242;DHT22;9755;47.790;9.620;2022-07-06T02:08:58;13.70;99.90
19242;DHT22;9755;47.790;9.620;2022-07-06T02:11:26;13.70;99.90
19242;DHT22;9755;47.790;9.620;2022-07-06T02:13:55;13.60;99.90
19242;DHT22;9755;47.790;9.620;2022-07-06T02:16:22;13.60;99.90
19242;DHT22;9755;47.790;9.620;2022-07-06T02:18:49;13.50;99.90
19242;DHT22;9755;47.790;9.620;2022-07-06T02:21:17;13.50;99.90
19242;DHT22;9755;47.790;9.620;2022-07-06T02:23:44;13.40;99.90
19242;DHT22;9755;47.790;9.620;2022-07-06T02:26:11;13.30;99.90
19242;DHT22;9755;47.790;9.620;2022-07-06T02:28:38;13.50;99.90
19242;DHT22;9755;47.790;9.620;2022-07-06T02:31:06;13.50;99.90
19242;DHT22;9755;47.790;9.620;2022-07-06T02:33:33;13.40;99.90
19242;DHT22;9755;47.790;9.620;2022-07-06T02:36:00;13.20;99.90
19242;DHT22;9755;47.790;9.620;2022-07-06T02:38:27;13.10;99.90
19242;DHT22;9755;47.790;9.620;2022-07-06T02:40:54;13.00;99.90
19242;DHT22;9755;47.790;9.620;2022-07-06T02:43:22;13.10;99.90
19242;DHT22;9755;47.790;9.620;2022-07-06T02:45:49;13.00;99.90
19242;DHT22;9755;47.790;9.620;2022-07-06T02:48:17;12.80;99.90
19242;DHT22;9755;47.790;9.620;2022-07-06T02:50:46;12.80;99.90
19242;DHT22;9755;47.790;9.620;2022-07-06T02:53:13;12.60;99.90
19242;DHT22;9755;47.790;9.620;2022-07-06T02:55:40;12.70;99.90
19242;DHT22;9755;47.790;9.620;2022-07-06T02:58:07;12.90;99.90
19242;DHT22;9755;47.790;9.620;2022-07-06T03:00:35;13.00;99.90
19242;DHT22;9755;47.790;9.620;2022-07-06T03:03:02;13.00;99.90
19242;DHT22;9755;47.790;9.620;2022-07-06T03:05:30;12.90;99.90
19242;DHT22;9755;47.790;9.620;2022-07-06T03:07:57;12.90;99.90
19242;DHT22;9755;47.790;9.620;2022-07-06T03:10:24;12.90;99.90
19242;DHT22;9755;47.790;9.620;2022-07-06T03:12:51;12.90;99.90
19242;DHT22;9755;47.790;9.620;2022-07-06T03:15:18;12.90;99.90
19242;DHT22;9755;47.790;9.620;2022-07-06T03:17:45;12.90;99.90
19242;DHT22;9755;47.790;9.620;2022-07-06T03:20:12;12.90;99.90
19242;DHT22;9755;47.790;9.620;2022-07-06T03:22:41;12.90;99.90
19242;DHT22;9755;47.790;9.620;2022-07-06T03:25:08;12.80;99.90
19242;DHT22;9755;47.790;9.620;2022-07-06T03:27:35;12.80;99.90
19242;DHT22;9755;47.790;9.620;2022-07-06T03:30:03;12.80;99.90
19242;DHT22;9755;47.790;9.620;2022-07-06T03:32:30;12.80;99.90
19242;DHT22;9755;47.790;9.620;2022-07-06T03:34:57;12.70;99.90
19242;DHT22;9755;47.790;9.620;2022-07-06T03:37:24;12.70;99.90
19242;DHT22;9755;47.790;9.620;2022-07-06T03:39:53;12.60;99.90
19242;DHT22;9755;47.790;9.620;2022-07-06T03:42:20;12.60;99.90
19242;DHT22;9755;47.790;9.620;2022-07-06T03:44:47;12.70;99.90
19242;DHT22;9755;47.790;9.620;2022-07-06T03:47:14;12.80;99.90
19242;DHT22;9755;47.790;9.620;2022-07-06T03:49:41;12.70;99.90
19242;DHT22;9755;47.790;9.620;2022-07-06T03:52:08;12.70;99.90
19242;DHT22;9755;47.790;9.620;2022-07-06T03:54:35;12.70;99.90
19242;DHT22;9755;47.790;9.620;2022-07-06T03:57:04;12.60;99.90
19242;DHT22;9755;47.790;9.620;2022-07-06T03:59:31;12.60;99.90
19242;DHT22;9755;47.790;9.620;2022-07-06T04:01:58;12.40;99.90
19242;DHT22;9755;47.790;9.620;2022-07-06T04:04:25;12.40;99.90
19242;DHT22;9755;47.790;9.620;2022-07-06T04:06:52;12.40;99.90
19242;DHT22;9755;47.790;9.620;2022-07-06T04:09:19;12.60;99.90
19242;DHT22;9755;47.790;9.620;2022-07-06T04:11:46;12.90;99.90
19242;DHT22;9755;47.790;9.620;2022-07-06T04:14:14;13.30;99.90
19242;DHT22;9755;47.790;9.620;2022-07-06T04:16:42;13.70;99.90
19242;DHT22;9755;47.790;9.620;2022-07-06T04:19:09;14.00;99.90
19242;DHT22;9755;47.790;9.620;2022-07-06T04:21:36;14.30;99.90
19242;DHT22;9755;47.790;9.620;2022-07-06T04:24:04;14.60;99.90
19242;DHT22;9755;47.790;9.620;2022-07-06T04:26:31;15.00;1.00
19242;DHT22;9755;47.790;9.620;2022-07-06T04:28:58;15.20;1.00
19242;DHT22;9755;47.790;9.620;2022-07-06T04:31:26;15.60;99.90
19242;DHT22;9755;47.790;9.620;2022-07-06T04:33:53;16.10;99.90
19242;DHT22;9755;47.790;9.620;2022-07-06T04:36:20;16.70;99.90
19242;DHT22;9755;47.790;9.620;2022-07-06T04:38:47;17.30;55.20
19242;DHT22;9755;47.790;9.620;2022-07-06T04:41:15;17.80;99.90
19242;DHT22;9755;47.790;9.620;2022-07-06T04:43:42;18.20;1.00
19242;DHT22;9755;47.790;9.620;2022-07-06T04:46:09;18.70;1.00
19242;DHT22;9755;47.790;9.620;2022-07-06T04:48:38;18.90;99.90
19242;DHT22;9755;47.790;9.620;2022-07-06T04:51:06;19.30;99.90
19242;DHT22;9755;47.790;9.620;2022-07-06T04:53:33;19.50;99.90
19242;DHT22;9755;47.790;9.620;2022-07-06T04:56:00;19.80;1.00
19242;DHT22;9755;47.790;9.620;2022-07-06T04:58:27;19.90;1.00
19242;DHT22;9755;47.790;9.620;2022-07-06T05:00:54;20.50;1.00
19242;DHT22;9755;47.790;9.620;2022-07-06T05:03:21;20.90;1.00
19242;DHT22;9755;47.790;9.620;2022-07-06T05:05:50;21.20;1.00
19242;DHT22;9755;47.790;9.620;2022-07-06T05:08:17;21.30;1.00
19242;DHT22;9755;47.790;9.620;2022-07-06T05:10:44;21.60;1.00
19242;DHT22;9755;47.790;9.620;2022-07-06T05:13:11;22.20;1.00
19242;DHT22;9755;47.790;9.620;2022-07-06T05:15:38;22.50;1.00
19242;DHT22;9755;47.790;9.620;2022-07-06T05:18:05;23.00;1.00
19242;DHT22;9755;47.790;9.620;2022-07-06T05:20:32;23.20;1.00
19242;DHT22;9755;47.790;9.620;2022-07-06T05:23:00;23.70;1.00
19242;DHT22;9755;47.790;9.620;2022-07-06T05:25:27;23.90;1.00
19242;DHT22;9755;47.790;9.620;2022-07-06T05:27:55;24.00;1.00
19242;DHT22;9755;47.790;9.620;2022-07-06T05:30:22;23.70;1.00
19242;DHT22;9755;47.790;9.620;2022-07-06T05:32:49;22.40;1.00
19242;DHT22;9755;47.790;9.620;2022-07-06T05:35:16;21.40;1.00
19242;DHT22;9755;47.790;9.620;2022-07-06T05:37:43;20.60;1.00
19242;DHT22;9755;47.790;9.620;2022-07-06T05:40:12;20.00;1.00
19242;DHT22;9755;47.790;9.620;2022-07-06T05:42:39;19.80;1.00
19242;DHT22;9755;47.790;9.620;2022-07-06T05:45:07;20.60;1.00
19242;DHT22;9755;47.790;9.620;2022-07-06T05:47:34;20.80;1.00
19242;DHT22;9755;47.790;9.620;2022-07-06T05:50:19;21.40;1.00
19242;DHT22;9755;47.790;9.620;2022-07-06T05:52:56;21.60;1.00
19242;DHT22;9755;47.790;9.620;2022-07-06T05:55:25;22.30;1.00
19242;DHT22;9755;47.790;9.620;2022-07-06T05:57:52;23.40;1.00
19242;DHT22;9755;47.790;9.620;2022-07-06T06:00:22;24.40;1.00
19242;DHT22;9755;47.790;9.620;2022-07-06T06:02:49;25.10;1.00
19242;DHT22;9755;47.790;9.620;2022-07-06T06:05:17;25.60;1.00
19242;DHT22;9755;47.790;9.620;2022-07-06T06:07:44;26.50;1.00
19242;DHT22;9755;47.790;9.620;2022-07-06T06:10:12;27.00;1.00
19242;DHT22;9755;47.790;9.620;2022-07-06T06:12:41;27.40;1.00
19242;DHT22;9755;47.790;9.620;2022-07-06T06:15:09;28.10;1.00
19242;DHT22;9755;47.790;9.620;2022-07-06T06:17:37;28.40;1.00
19242;DHT22;9755;47.790;9.620;2022-07-06T06:20:06;28.70;99.90
19242;DHT22;9755;47.790;9.620;2022-07-06T06:22:44;29.10;99.90
19242;DHT22;9755;47.790;9.620;2022-07-06T06:25:12;28.90;99.90
19242;DHT22;9755;47.790;9.620;2022-07-06T06:27:41;29.60;99.90
19242;DHT22;9755;47.790;9.620;2022-07-06T06:30:09;29.80;99.90
19242;DHT22;9755;47.790;9.620;2022-07-06T06:32:36;30.30;99.90
19242;DHT22;9755;47.790;9.620;2022-07-06T06:35:04;30.60;99.90
19242;DHT22;9755;47.790;9.620;2022-07-06T06:37:31;30.90;99.90
19242;DHT22;9755;47.790;9.620;2022-07-06T06:39:59;29.00;99.90
19242;DHT22;9755;47.790;9.620;2022-07-06T06:42:26;27.70;99.90
19242;DHT22;9755;47.790;9.620;2022-07-06T06:44:55;26.00;99.90
19242;DHT22;9755;47.790;9.620;2022-07-06T06:47:22;24.90;99.90
19242;DHT22;9755;47.790;9.620;2022-07-06T06:49:49;24.60;99.90
19242;DHT22;9755;47.790;9.620;2022-07-06T06:52:16;24.60;99.90
19242;DHT22;9755;47.790;9.620;2022-07-06T06:54:43;24.70;99.90
19242;DHT22;9755;47.790;9.620;2022-07-06T06:57:11;24.60;99.90
19242;DHT22;9755;47.790;9.620;2022-07-06T06:59:38;25.50;99.90
19242;DHT22;9755;47.790;9.620;2022-07-06T07:02:06;26.80;99.90
19242;DHT22;9755;47.790;9.620;2022-07-06T07:04:33;27.00;99.90
19242;DHT22;9755;47.790;9.620;2022-07-06T07:07:00;27.50;99.90
19242;DHT22;9755;47.790;9.620;2022-07-06T07:09:27;26.80;99.90
19242;DHT22;9755;47.790;9.620;2022-07-06T07:11:54;27.90;99.90
19242;DHT22;9755;47.790;9.620;2022-07-06T07:14:21;28.70;99.90
19242;DHT22;9755;47.790;9.620;2022-07-06T07:16:48;29.40;99.90
19242;DHT22;9755;47.790;9.620;2022-07-06T07:19:17;30.20;99.90
19242;DHT22;9755;47.790;9.620;2022-07-06T07:21:44;30.30;99.90
19242;DHT22;9755;47.790;9.620;2022-07-06T07:24:11;30.70;99.90
19242;DHT22;9755;47.790;9.620;2022-07-06T07:26:38;30.80;99.90
19242;DHT22;9755;47.790;9.620;2022-07-06T07:29:05;30.70;99.90
19242;DHT22;9755;47.790;9.620;2022-07-06T07:31:32;30.70;99.90
19242;DHT22;9755;47.790;9.620;2022-07-06T07:33:59;31.10;99.90
19242;DHT22;9755;47.790;9.620;2022-07-06T07:36:28;30.60;99.90
19242;DHT22;9755;47.790;9.620;2022-07-06T07:38:55;30.10;99.90
19242;DHT22;9755;47.790;9.620;2022-07-06T07:41:22;30.60;99.90
19242;DHT22;9755;47.790;9.620;2022-07-06T07:43:49;31.40;99.90
19242;DHT22;9755;47.790;9.620;2022-07-06T07:46:16;31.80;99.90
19242;DHT22;9755;47.790;9.620;2022-07-06T07:48:43;32.60;99.90
19242;DHT22;9755;47.790;9.620;2022-07-06T07:51:10;32.00;99.90
19242;DHT22;9755;47.790;9.620;2022-07-06T07:53:39;32.50;99.90
19242;DHT22;9755;47.790;9.620;2022-07-06T07:56:06;31.70;99.90
19242;DHT22;9755;47.790;9.620;2022-07-06T07:58:33;31.10;99.90
19242;DHT22;9755;47.790;9.620;2022-07-06T08:01:00;31.40;99.90
19242;DHT22;9755;47.790;9.620;2022-07-06T08:03:27;32.80;99.90
19242;DHT22;9755;47.790;9.620;2022-07-06T08:05:54;33.60;99.90
19242;DHT22;9755;47.790;9.620;2022-07-06T08:08:21;33.90;99.90
19242;DHT22;9755;47.790;9.620;2022-07-06T08:10:50;34.60;99.90
19242;DHT22;9755;47.790;9.620;2022-07-06T08:13:17;34.80;99.90
19242;DHT22;9755;47.790;9.620;2022-07-06T08:15:44;34.50;99.90
19242;DHT22;9755;47.790;9.620;2022-07-06T08:18:11;35.80;99.90
19242;DHT22;9755;47.790;9.620;2022-07-06T08:20:38;35.00;99.90
19242;DHT22;9755;47.790;9.620;2022-07-06T08:23:05;33.30;99.90
19242;DHT22;9755;47.790;9.620;2022-07-06T08:25:32;32.00;99.90
19242;DHT22;9755;47.790;9.620;2022-07-06T08:28:01;33.40;99.90
19242;DHT22;9755;47.790;9.620;2022-07-06T08:30:28;34.20;99.90
19242;DHT22;9755;47.790;9.620;2022-07-06T08:32:57;34.50;99.90
19242;DHT22;9755;47.790;9.620;2022-07-06T08:35:24;35.20;99.90
19242;DHT22;9755;47.790;9.620;2022-07-06T08:37:51;35.90;99.90
19242;DHT22;9755;47.790;9.620;2022-07-06T08:40:18;36.20;99.90
19242;DHT22;9755;47.790;9.620;2022-07-06T08:42:46;36.50;99.90
19242;DHT22;9755;47.790;9.620;2022-07-06T08:45:16;36.10;99.90
19242;DHT22;9755;47.790;9.620;2022-07-06T08:47:44;34.30;99.90
19242;DHT22;9755;47.790;9.620;2022-07-06T08:50:12;33.20;99.90
19242;DHT22;9755;47.790;9.620;2022-07-06T08:52:40;34.30;99.90
19242;DHT22;9755;47.790;9.620;2022-07-06T08:55:08;34.20;99.90
19242;DHT22;9755;47.790;9.620;2022-07-06T08:57:36;34.80;99.90
19242;DHT22;9755;47.790;9.620;2022-07-06T09:00:06;33.60;99.90
19242;DHT22;9755;47.790;9.620;2022-07-06T09:02:36;35.00;99.90
19242;DHT22;9755;47.790;9.620;2022-07-06T09:05:04;35.60;99.90
19242;DHT22;9755;47.790;9.620;2022-07-06T09:07:31;36.30;99.90
19242;DHT22;9755;47.790;9.620;2022-07-06T09:09:59;36.10;99.90
19242;DHT22;9755;47.790;9.620;2022-07-06T09:12:27;34.50;99.90
19242;DHT22;9755;47.790;9.620;2022-07-06T09:14:54;35.60;99.90
19242;DHT22;9755;47.790;9.620;2022-07-06T09:17:25;36.50;99.90
19242;DHT22;9755;47.790;9.620;2022-07-06T09:19:54;36.00;99.90
19242;DHT22;9755;47.790;9.620;2022-07-06T09:22:26;36.80;99.90
19242;DHT22;9755;47.790;9.620;2022-07-06T09:25:00;37.90;99.90
19242;DHT22;9755;47.790;9.620;2022-07-06T09:27:27;37.80;99.90
19242;DHT22;9755;47.790;9.620;2022-07-06T09:29:54;38.60;99.90
19242;DHT22;9755;47.790;9.620;2022-07-06T09:32:25;36.00;99.90
19242;DHT22;9755;47.790;9.620;2022-07-06T09:34:54;34.50;99.90
19242;DHT22;9755;47.790;9.620;2022-07-06T09:37:22;35.20;99.90
19242;DHT22;9755;47.790;9.620;2022-07-06T09:39:49;35.30;99.90
19242;DHT22;9755;47.790;9.620;2022-07-06T09:42:17;36.30;99.90
19242;DHT22;9755;47.790;9.620;2022-07-06T09:44:50;37.20;99.90
19242;DHT22;9755;47.790;9.620;2022-07-06T09:47:18;37.70;99.90
19242;DHT22;9755;47.790;9.620;2022-07-06T09:49:46;38.00;99.90
19242;DHT22;9755;47.790;9.620;2022-07-06T09:52:14;35.70;99.90
19242;DHT22;9755;47.790;9.620;2022-07-06T09:54:42;36.20;99.90
19242;DHT22;9755;47.790;9.620;2022-07-06T09:57:09;36.60;99.90
19242;DHT22;9755;47.790;9.620;2022-07-06T09:59:36;37.10;99.90
19242;DHT22;9755;47.790;9.620;2022-07-06T10:02:06;37.50;99.90
19242;DHT22;9755;47.790;9.620;2022-07-06T10:04:33;38.00;99.90
19242;DHT22;9755;47.790;9.620;2022-07-06T10:07:02;37.60;99.90
19242;DHT22;9755;47.790;9.620;2022-07-06T10:09:32;37.00;99.90
19242;DHT22;9755;47.790;9.620;2022-07-06T10:12:01;37.60;99.90
19242;DHT22;9755;47.790;9.620;2022-07-06T10:14:30;38.80;99.90
19242;DHT22;9755;47.790;9.620;2022-07-06T10:16:59;37.80;99.90
19242;DHT22;9755;47.790;9.620;2022-07-06T10:19:27;37.00;99.90
19242;DHT22;9755;47.790;9.620;2022-07-06T10:21:56;37.50;99.90
19242;DHT22;9755;47.790;9.620;2022-07-06T10:24:24;34.70;99.90
19242;DHT22;9755;47.790;9.620;2022-07-06T10:26:55;36.10;99.90
19242;DHT22;9755;47.790;9.620;2022-07-06T10:29:24;35.20;99.90
19242;DHT22;9755;47.790;9.620;2022-07-06T10:31:52;34.50;99.90
19242;DHT22;9755;47.790;9.620;2022-07-06T10:34:20;33.00;99.90
19242;DHT22;9755;47.790;9.620;2022-07-06T10:36:49;31.80;99.90
19242;DHT22;9755;47.790;9.620;2022-07-06T10:39:31;32.40;99.90
19242;DHT22;9755;47.790;9.620;2022-07-06T10:42:42;32.40;99.90
19242;DHT22;9755;47.790;9.620;2022-07-06T10:45:11;32.70;99.90
19242;DHT22;9755;47.790;9.620;2022-07-06T10:47:38;32.20;99.90
19242;DHT22;9755;47.790;9.620;2022-07-06T10:50:06;33.40;99.90
19242;DHT22;9755;47.790;9.620;2022-07-06T10:52:48;33.50;99.90
19242;DHT22;9755;47.790;9.620;2022-07-06T10:55:31;33.20;99.90
19242;DHT22;9755;47.790;9.620;2022-07-06T10:58:00;34.40;99.90
19242;DHT22;9755;47.790;9.620;2022-07-06T11:00:47;35.10;99.90
19242;DHT22;9755;47.790;9.620;2022-07-06T11:03:32;33.90;99.90
19242;DHT22;9755;47.790;9.620;2022-07-06T11:05:59;34.60;99.90
19242;DHT22;9755;47.790;9.620;2022-07-06T11:08:46;35.20;99.90
19242;DHT22;9755;47.790;9.620;2022-07-06T11:11:14;36.00;99.90
19242;DHT22;9755;47.790;9.620;2022-07-06T11:13:48;35.00;99.90
19242;DHT22;9755;47.790;9.620;2022-07-06T11:16:17;34.10;99.90
19242;DHT22;9755;47.790;9.620;2022-07-06T11:18:49;34.10;99.90
19242;DHT22;9755;47.790;9.620;2022-07-06T11:21:18;34.10;99.90
19242;DHT22;9755;47.790;9.620;2022-07-06T11:23:47;35.10;99.90
19242;DHT22;9755;47.790;9.620;2022-07-06T11:26:14;35.30;99.90
19242;DHT22;9755;47.790;9.620;2022-07-06T11:28:46;35.20;99.90
19242;DHT22;9755;47.790;9.620;2022-07-06T11:31:15;35.10;99.90
19242;DHT22;9755;47.790;9.620;2022-07-06T11:33:45;35.80;99.90
19242;DHT22;9755;47.790;9.620;2022-07-06T11:36:14;35.80;99.90
19242;DHT22;9755;47.790;9.620;2022-07-06T11:38:42;35.70;99.90
19242;DHT22;9755;47.790;9.620;2022-07-06T11:41:09;36.40;99.90
19242;DHT22;9755;47.790;9.620;2022-07-06T11:43:39;37.00;99.90
19242;DHT22;9755;47.790;9.620;2022-07-06T11:46:27;36.60;99.90
19242;DHT22;9755;47.790;9.620;2022-07-06T11:48:56;36.60;99.90
19242;DHT22;9755;47.790;9.620;2022-07-06T11:51:25;36.30;99.90
19242;DHT22;9755;47.790;9.620;2022-07-06T11:53:54;35.20;99.90
19242;DHT22;9755;47.790;9.620;2022-07-06T11:56:21;35.80;99.90
19242;DHT22;9755;47.790;9.620;2022-07-06T11:58:52;35.60;99.90
19242;DHT22;9755;47.790;9.620;2022-07-06T12:01:21;36.20;99.90
19242;DHT22;9755;47.790;9.620;2022-07-06T12:03:51;35.20;99.90
19242;DHT22;9755;47.790;9.620;2022-07-06T12:06:20;33.30;99.90
19242;DHT22;9755;47.790;9.620;2022-07-06T12:08:49;33.50;99.90
19242;DHT22;9755;47.790;9.620;2022-07-06T12:11:20;34.60;99.90
19242;DHT22;9755;47.790;9.620;2022-07-06T12:13:49;34.00;99.90
19242;DHT22;9755;47.790;9.620;2022-07-06T12:16:16;33.30;99.90
19242;DHT22;9755;47.790;9.620;2022-07-06T12:18:44;32.60;99.90
19242;DHT22;9755;47.790;9.620;2022-07-06T12:21:14;31.90;99.90
19242;DHT22;9755;47.790;9.620;2022-07-06T12:23:44;30.90;99.90
19242;DHT22;9755;47.790;9.620;2022-07-06T12:26:12;32.90;99.90
19242;DHT22;9755;47.790;9.620;2022-07-06T12:28:39;34.20;99.90
19242;DHT22;9755;47.790;9.620;2022-07-06T12:31:06;35.10;99.90
19242;DHT22;9755;47.790;9.620;2022-07-06T12:33:34;35.10;99.90
19242;DHT22;9755;47.790;9.620;2022-07-06T12:36:13;35.80;99.90
19242;DHT22;9755;47.790;9.620;2022-07-06T12:38:46;35.70;99.90
19242;DHT22;9755;47.790;9.620;2022-07-06T12:41:31;35.20;99.90
19242;DHT22;9755;47.790;9.620;2022-07-06T12:44:07;34.40;99.90
19242;DHT22;9755;47.790;9.620;2022-07-06T12:46:35;34.50;99.90
19242;DHT22;9755;47.790;9.620;2022-07-06T12:49:11;34.60;99.90
19242;DHT22;9755;47.790;9.620;2022-07-06T12:52:08;34.10;99.90
19242;DHT22;9755;47.790;9.620;2022-07-06T12:54:40;33.80;99.90
19242;DHT22;9755;47.790;9.620;2022-07-06T12:57:13;33.60;99.90
19242;DHT22;9755;47.790;9.620;2022-07-06T12:59:42;33.00;99.90
19242;DHT22;9755;47.790;9.620;2022-07-06T13:02:18;32.90;99.90
19242;DHT22;9755;47.790;9.620;2022-07-06T13:04:55;33.90;99.90
19242;DHT22;9755;47.790;9.620;2022-07-06T13:07:24;33.80;99.90
19242;DHT22;9755;47.790;9.620;2022-07-06T13:09:52;33.50;99.90
19242;DHT22;9755;47.790;9.620;2022-07-06T13:12:19;33.90;99.90
19242;DHT22;9755;47.790;9.620;2022-07-06T13:14:47;34.10;99.90
19242;DHT22;9755;47.790;9.620;2022-07-06T13:17:14;33.40;99.90
19242;DHT22;9755;47.790;9.620;2022-07-06T13:19:41;33.60;99.90
19242;DHT22;9755;47.790;9.620;2022-07-06T13:22:08;34.10;99.90
19242;DHT22;9755;47.790;9.620;2022-07-06T13:24:37;33.80;99.90
19242;DHT22;9755;47.790;9.620;2022-07-06T13:27:05;33.50;99.90
19242;DHT22;9755;47.790;9.620;2022-07-06T13:29:32;33.50;99.90
19242;DHT22;9755;47.790;9.620;2022-07-06T13:31:59;32.70;99.90
19242;DHT22;9755;47.790;9.620;2022-07-06T13:34:26;32.70;99.90
19242;DHT22;9755;47.790;9.620;2022-07-06T13:36:53;32.30;99.90
19242;DHT22;9755;47.790;9.620;2022-07-06T13:39:20;31.90;99.90
19242;DHT22;9755;47.790;9.620;2022-07-06T13:41:49;32.20;99.90
19242;DHT22;9755;47.790;9.620;2022-07-06T13:44:16;32.00;99.90
19242;DHT22;9755;47.790;9.620;2022-07-06T13:46:43;31.50;99.90
19242;DHT22;9755;47.790;9.620;2022-07-06T13:49:11;30.80;99.90
19242;DHT22;9755;47.790;9.620;2022-07-06T13:51:38;30.70;99.90
19242;DHT22;9755;47.790;9.620;2022-07-06T13:54:06;31.30;99.90
19242;DHT22;9755;47.790;9.620;2022-07-06T13:56:33;31.70;99.90
19242;DHT22;9755;47.790;9.620;2022-07-06T13:59:02;32.20;99.90
19242;DHT22;9755;47.790;9.620;2022-07-06T14:01:29;32.40;99.90
19242;DHT22;9755;47.790;9.620;2022-07-06T14:03:56;32.40;99.90
19242;DHT22;9755;47.790;9.620;2022-07-06T14:06:23;32.10;99.90
19242;DHT22;9755;47.790;9.620;2022-07-06T14:08:50;32.10;99.90
19242;DHT22;9755;47.790;9.620;2022-07-06T14:11:17;32.40;99.90
19242;DHT22;9755;47.790;9.620;2022-07-06T14:13:45;32.20;99.90
19242;DHT22;9755;47.790;9.620;2022-07-06T14:16:13;32.20;99.90
19242;DHT22;9755;47.790;9.620;2022-07-06T14:18:40;32.00;99.90
19242;DHT22;9755;47.790;9.620;2022-07-06T14:21:09;31.70;99.90
19242;DHT22;9755;47.790;9.620;2022-07-06T14:23:36;32.10;99.90
19242;DHT22;9755;47.790;9.620;2022-07-06T14:26:04;32.10;99.90
19242;DHT22;9755;47.790;9.620;2022-07-06T14:28:31;32.30;99.90
19242;DHT22;9755;47.790;9.620;2022-07-06T14:30:58;32.20;99.90
19242;DHT22;9755;47.790;9.620;2022-07-06T14:33:28;31.70;99.90
19242;DHT22;9755;47.790;9.620;2022-07-06T14:35:55;31.60;99.90
19242;DHT22;9755;47.790;9.620;2022-07-06T14:38:22;31.90;99.90
19242;DHT22;9755;47.790;9.620;2022-07-06T14:40:49;32.20;99.90
19242;DHT22;9755;47.790;9.620;2022-07-06T14:43:17;32.40;99.90
19242;DHT22;9755;47.790;9.620;2022-07-06T14:45:45;32.40;99.90
19242;DHT22;9755;47.790;9.620;2022-07-06T14:48:12;32.10;99.90
19242;DHT22;9755;47.790;9.620;2022-07-06T14:50:41;32.20;99.90
19242;DHT22;9755;47.790;9.620;2022-07-06T14:53:08;32.30;99.90
19242;DHT22;9755;47.790;9.620;2022-07-06T14:55:35;32.60;99.90
19242;DHT22;9755;47.790;9.620;2022-07-06T14:58:02;33.00;99.90
19242;DHT22;9755;47.790;9.620;2022-07-06T15:00:29;32.30;99.90
19242;DHT22;9755;47.790;9.620;2022-07-06T15:02:56;31.70;99.90
19242;DHT22;9755;47.790;9.620;2022-07-06T15:05:23;31.30;99.90
19242;DHT22;9755;47.790;9.620;2022-07-06T15:07:52;31.30;99.90
19242;DHT22;9755;47.790;9.620;2022-07-06T15:10:19;31.40;99.90
19242;DHT22;9755;47.790;9.620;2022-07-06T15:12:46;31.80;99.90
19242;DHT22;9755;47.790;9.620;2022-07-06T15:15:14;31.80;99.90
19242;DHT22;9755;47.790;9.620;2022-07-06T15:17:41;31.60;99.90
19242;DHT22;9755;47.790;9.620;2022-07-06T15:20:09;31.20;99.90
19242;DHT22;9755;47.790;9.620;2022-07-06T15:22:36;30.70;99.90
19242;DHT22;9755;47.790;9.620;2022-07-06T15:25:06;30.80;99.90
19242;DHT22;9755;47.790;9.620;2022-07-06T15:27:34;30.80;99.90
19242;DHT22;9755;47.790;9.620;2022-07-06T15:30:01;30.40;99.90
19242;DHT22;9755;47.790;9.620;2022-07-06T15:32:28;30.20;99.90
19242;DHT22;9755;47.790;9.620;2022-07-06T15:34:55;29.70;99.90
19242;DHT22;9755;47.790;9.620;2022-07-06T15:37:22;29.30;99.90
19242;DHT22;9755;47.790;9.620;2022-07-06T15:39:49;28.90;99.90
19242;DHT22;9755;47.790;9.620;2022-07-06T15:42:18;28.60;99.90
19242;DHT22;9755;47.790;9.620;2022-07-06T15:44:45;28.40;99.90
19242;DHT22;9755;47.790;9.620;2022-07-06T15:47:14;28.50;99.90
19242;DHT22;9755;47.790;9.620;2022-07-06T15:49:41;28.40;99.90
19242;DHT22;9755;47.790;9.620;2022-07-06T15:52:08;28.70;99.90
19242;DHT22;9755;47.790;9.620;2022-07-06T15:54:36;29.20;99.90